createdAt,value
2018-07-13T00:00:23.292Z,80.18
2018-07-13T00:02:57.852Z,80.48
2018-07-13T00:05:32.532Z,80.79
2018-07-13T00:08:07.129Z,80.98
2018-07-13T00:10:41.778Z,81.14
2018-07-13T00:13:16.360Z,81.46
2018-07-13T00:15:58.727Z,81.94
2018-07-13T00:18:33.160Z,82.62
2018-07-13T00:21:07.873Z,83.13
2018-07-13T00:23:42.624Z,83.03
2018-07-13T00:26:17.284Z,82.93
2018-07-13T00:28:52.115Z,83.12
2018-07-13T00:31:26.580Z,83.18
2018-07-13T00:34:01.128Z,83.57
2018-07-13T00:36:35.857Z,84.23
2018-07-13T00:39:12.296Z,84.21
2018-07-13T00:41:46.796Z,84.85
2018-07-13T00:44:21.396Z,84.93
2018-07-13T00:46:55.959Z,85.35
2018-07-13T00:49:30.485Z,85.20
2018-07-13T00:52:04.883Z,85.79
2018-07-13T00:54:39.499Z,85.63
2018-07-13T00:57:13.961Z,85.80
2018-07-13T00:59:48.527Z,86.40
2018-07-13T01:02:23.028Z,86.81
2018-07-13T01:04:57.569Z,86.68
2018-07-13T01:07:32.177Z,87.02
2018-07-13T01:10:06.762Z,86.39
2018-07-13T01:12:41.382Z,86.18
2018-07-13T01:15:16.440Z,85.68
2018-07-13T01:17:51.060Z,85.67
2018-07-13T01:20:25.685Z,85.67
2018-07-13T01:23:00.388Z,86.47
2018-07-13T01:25:35.175Z,86.16
2018-07-13T01:28:09.728Z,85.97
2018-07-13T01:30:44.358Z,86.40
2018-07-13T01:33:18.996Z,86.36
2018-07-13T01:35:53.730Z,86.17
2018-07-13T01:38:28.239Z,86.63
2018-07-13T01:41:02.764Z,86.36
2018-07-13T01:43:37.268Z,86.22
2018-07-13T01:46:11.906Z,86.80
2018-07-13T01:48:46.442Z,86.42
2018-07-13T01:51:20.981Z,86.91
2018-07-13T01:53:55.614Z,87.26
2018-07-13T01:56:30.325Z,87.22
2018-07-13T01:59:04.956Z,87.60
2018-07-13T02:01:39.588Z,88.20
2018-07-13T02:04:14.110Z,88.11
2018-07-13T02:06:48.836Z,87.91
2018-07-13T02:09:23.474Z,87.56
2018-07-13T02:11:58.593Z,88.13
2018-07-13T02:14:33.101Z,88.28
2018-07-13T02:17:08.021Z,88.63
2018-07-13T02:19:42.521Z,88.20
2018-07-13T02:22:17.099Z,88.25
2018-07-13T02:24:51.521Z,88.89
2018-07-13T02:27:25.913Z,89.20
2018-07-13T02:30:00.548Z,89.23
2018-07-13T02:32:35.193Z,90.01
2018-07-13T02:35:09.857Z,90.14
2018-07-13T02:37:44.733Z,90.86
2018-07-13T02:40:19.312Z,91.04
2018-07-13T02:42:53.913Z,91.48
2018-07-13T02:45:28.500Z,91.79
2018-07-13T02:48:03.075Z,91.76
2018-07-13T02:50:37.471Z,91.87
2018-07-13T02:53:11.887Z,91.86
2018-07-13T02:55:46.595Z,91.60
2018-07-13T02:58:21.321Z,92.66
2018-07-13T03:00:55.819Z,91.68
2018-07-13T03:03:30.400Z,91.38
2018-07-13T03:06:04.880Z,91.23
2018-07-13T03:08:39.351Z,90.43
2018-07-13T03:11:13.812Z,90.10
2018-07-13T03:13:48.247Z,89.77
2018-07-13T03:16:22.796Z,90.33
2018-07-13T03:18:57.320Z,89.87
2018-07-13T03:21:32.115Z,90.36
2018-07-13T03:24:06.804Z,90.13
2018-07-13T03:26:41.291Z,89.51
2018-07-13T03:29:15.778Z,90.12
2018-07-13T03:31:50.134Z,89.48
2018-07-13T03:34:24.654Z,90.31
2018-07-13T03:36:59.136Z,90.41
2018-07-13T03:39:33.661Z,89.88
2018-07-13T03:42:08.065Z,90.88
2018-07-13T03:44:42.702Z,91.32
2018-07-13T03:47:17.348Z,91.72
2018-07-13T03:49:51.845Z,91.54
2018-07-13T03:52:26.569Z,90.97
2018-07-13T03:55:01.053Z,91.81
2018-07-13T03:57:35.657Z,92.00
2018-07-13T04:00:10.182Z,91.95
2018-07-13T04:02:44.813Z,91.95
2018-07-13T04:05:19.280Z,92.09
2018-07-13T04:07:53.826Z,91.57
2018-07-13T04:10:28.307Z,91.33
2018-07-13T04:13:02.846Z,91.00
2018-07-13T04:15:37.420Z,91.18
2018-07-13T04:18:15.006Z,91.04
2018-07-13T04:20:50.030Z,90.99
2018-07-13T04:23:24.951Z,91.33
2018-07-13T04:25:59.512Z,90.51
2018-07-13T04:28:34.072Z,90.81
2018-07-13T04:31:08.701Z,90.04
2018-07-13T04:33:43.288Z,90.63
2018-07-13T04:36:17.926Z,90.73
2018-07-13T04:38:52.569Z,90.13
2018-07-13T04:41:27.109Z,90.10
2018-07-13T04:44:01.669Z,88.76
2018-07-13T04:46:36.641Z,88.59
2018-07-13T04:49:11.205Z,87.58
2018-07-13T04:51:45.662Z,86.46
2018-07-13T04:54:20.325Z,86.11
2018-07-13T04:56:54.849Z,86.05
2018-07-13T04:59:29.269Z,85.37
2018-07-13T05:02:03.726Z,85.15
2018-07-13T05:04:38.112Z,83.79
2018-07-13T05:07:12.792Z,83.28
2018-07-13T05:09:47.268Z,83.26
2018-07-13T05:12:21.842Z,82.37
2018-07-13T05:14:56.485Z,82.11
2018-07-13T05:17:31.014Z,81.81
2018-07-13T05:20:05.878Z,81.24
2018-07-13T05:22:40.460Z,81.34
2018-07-13T05:25:15.150Z,81.57
2018-07-13T05:27:49.738Z,81.30
2018-07-13T05:30:24.481Z,80.71
2018-07-13T05:32:59.037Z,80.59
2018-07-13T05:35:33.581Z,80.57
2018-07-13T05:38:08.046Z,80.49
2018-07-13T05:40:42.610Z,80.29
2018-07-13T05:43:17.253Z,79.50
2018-07-13T05:45:51.835Z,79.50
2018-07-13T05:48:26.369Z,78.92
2018-07-13T05:51:00.973Z,79.36
2018-07-13T05:53:35.633Z,76.21
2018-07-13T05:56:10.260Z,76.33
2018-07-13T05:58:44.862Z,74.40
2018-07-13T06:01:19.430Z,74.36
2018-07-13T06:03:54.094Z,73.65
2018-07-13T06:06:28.578Z,74.31
2018-07-13T06:09:03.165Z,75.36
2018-07-13T06:11:37.954Z,74.93
2018-07-13T06:14:12.651Z,75.11
2018-07-13T06:16:47.236Z,74.64
2018-07-13T06:19:21.772Z,75.15
2018-07-13T06:21:56.229Z,73.99
2018-07-13T06:24:30.636Z,72.51
2018-07-13T06:27:05.178Z,71.70
2018-07-13T06:29:39.713Z,72.19
2018-07-13T06:32:14.221Z,70.90
2018-07-13T06:34:48.787Z,69.17
2018-07-13T06:37:23.349Z,67.92
2018-07-13T06:39:57.973Z,65.30
2018-07-13T06:42:32.489Z,58.30
2018-07-13T06:45:06.856Z,50.11
2018-07-13T06:47:41.454Z,47.23
2018-07-13T06:50:16.160Z,45.31
2018-07-13T06:52:50.757Z,36.82
2018-07-13T06:55:25.329Z,39.20
2018-07-13T06:58:11.165Z,39.27
2018-07-13T07:00:58.425Z,39.33
2018-07-13T07:03:35.789Z,38.16
2018-07-13T07:06:13.075Z,33.85
2018-07-13T07:08:48.625Z,33.98
2018-07-13T07:11:23.421Z,35.25
2018-07-13T07:13:58.027Z,34.16
2018-07-13T07:16:32.689Z,35.47
2018-07-13T07:19:07.073Z,36.17
2018-07-13T07:21:41.594Z,29.71
2018-07-13T07:24:16.117Z,30.96
2018-07-13T07:26:50.522Z,32.38
2018-07-13T07:29:25.049Z,31.22
2018-07-13T07:31:59.457Z,31.89
2018-07-13T07:34:33.949Z,27.32
2018-07-13T07:37:08.329Z,31.35
2018-07-13T07:39:42.904Z,30.72
2018-07-13T07:42:17.399Z,32.43
2018-07-13T07:44:51.803Z,30.06
2018-07-13T07:47:26.137Z,28.96
2018-07-13T07:50:00.664Z,28.65
2018-07-13T07:52:35.150Z,29.13
2018-07-13T07:55:09.620Z,29.94
2018-07-13T07:57:44.529Z,28.44
2018-07-13T08:00:19.201Z,26.29
2018-07-13T08:02:53.686Z,29.76
2018-07-13T08:05:28.232Z,26.40
2018-07-13T08:08:02.717Z,24.20
2018-07-13T08:10:37.197Z,27.48
2018-07-13T08:13:11.758Z,24.40
2018-07-13T08:15:46.336Z,26.79
2018-07-13T08:18:20.599Z,28.28
2018-07-13T08:20:55.091Z,25.17
2018-07-13T08:23:29.695Z,30.10
2018-07-13T08:26:04.311Z,26.02
2018-07-13T08:28:38.723Z,26.67
2018-07-13T08:31:12.964Z,24.65
2018-07-13T08:33:47.396Z,22.56
2018-07-13T08:36:21.679Z,22.62
2018-07-13T08:38:56.370Z,22.86
2018-07-13T08:41:30.819Z,20.89
2018-07-13T08:44:05.163Z,22.02
2018-07-13T08:46:39.496Z,22.28
2018-07-13T08:49:13.948Z,21.50
2018-07-13T08:51:48.563Z,21.98
2018-07-13T08:54:22.744Z,20.99
2018-07-13T08:56:57.351Z,21.49
2018-07-13T08:59:31.823Z,21.64
2018-07-13T09:02:06.267Z,23.34
2018-07-13T09:04:40.551Z,23.10
2018-07-13T09:07:15.020Z,25.00
2018-07-13T09:09:49.408Z,22.71
2018-07-13T09:12:23.691Z,21.10
2018-07-13T09:14:58.229Z,19.96
2018-07-13T09:17:32.664Z,20.33
2018-07-13T09:20:08.708Z,23.15
2018-07-13T09:22:43.033Z,20.47
2018-07-13T09:25:17.472Z,20.15
2018-07-13T09:27:51.807Z,19.85
2018-07-13T09:30:26.254Z,19.51
2018-07-13T09:33:00.573Z,16.86
2018-07-13T09:35:34.952Z,17.58
2018-07-13T09:38:09.389Z,20.61
2018-07-13T09:40:43.885Z,18.01
2018-07-13T09:43:18.313Z,17.56
2018-07-13T09:45:52.668Z,17.88
2018-07-13T09:48:27.121Z,18.94
2018-07-13T09:51:01.561Z,20.24
2018-07-13T09:53:36.104Z,20.35
2018-07-13T09:56:10.378Z,20.18
2018-07-13T09:58:44.585Z,19.52
2018-07-13T10:01:19.256Z,19.76
2018-07-13T10:03:53.687Z,17.58
2018-07-13T10:06:28.055Z,19.74
2018-07-13T10:09:02.413Z,19.18
2018-07-13T10:11:36.784Z,18.62
2018-07-13T10:14:11.214Z,18.33
2018-07-13T10:16:45.607Z,18.21
2018-07-13T10:19:20.015Z,17.23
2018-07-13T10:21:54.439Z,19.55
2018-07-13T10:24:28.788Z,24.04
2018-07-13T10:27:03.047Z,23.30
2018-07-13T10:29:41.796Z,22.24
2018-07-13T10:32:16.249Z,21.06
2018-07-13T10:34:51.821Z,18.46
2018-07-13T10:37:27.299Z,22.17
2018-07-13T10:40:01.618Z,22.90
2018-07-13T10:42:35.978Z,21.89
2018-07-13T10:45:10.370Z,24.34
2018-07-13T10:47:44.859Z,21.98
2018-07-13T10:50:19.296Z,20.63
2018-07-13T10:52:54.119Z,19.79
2018-07-13T10:55:28.617Z,19.13
2018-07-13T10:58:03.005Z,19.11
2018-07-13T11:00:37.305Z,19.60
2018-07-13T11:03:11.552Z,20.53
2018-07-13T11:05:45.987Z,23.76
2018-07-13T11:08:20.379Z,20.75
2018-07-13T11:10:54.634Z,18.84
2018-07-13T11:13:29.100Z,19.51
2018-07-13T11:16:03.533Z,23.40
2018-07-13T11:18:37.934Z,23.82
2018-07-13T11:21:12.368Z,23.85
2018-07-13T11:23:46.744Z,24.53
2018-07-13T11:26:21.139Z,19.75
2018-07-13T11:28:55.720Z,17.86
2018-07-13T11:31:30.075Z,21.33
2018-07-13T11:34:04.328Z,22.19
2018-07-13T11:36:39.085Z,20.59
2018-07-13T11:39:13.416Z,24.92
2018-07-13T11:41:47.804Z,28.50
2018-07-13T11:44:22.223Z,27.34
2018-07-13T11:46:56.589Z,26.33
2018-07-13T11:49:31.032Z,25.26
2018-07-13T11:52:05.358Z,25.68
2018-07-13T11:54:39.765Z,27.23
2018-07-13T11:57:14.414Z,24.87
2018-07-13T11:59:48.844Z,24.70
2018-07-13T12:02:23.195Z,25.41
2018-07-13T12:04:57.543Z,26.22
2018-07-13T12:07:31.956Z,30.43
2018-07-13T12:10:06.347Z,32.99
2018-07-13T12:12:40.771Z,32.64
2018-07-13T12:15:15.113Z,34.09
2018-07-13T12:17:49.648Z,35.40
2018-07-13T12:20:24.130Z,35.48
2018-07-13T12:22:58.524Z,33.88
2018-07-13T12:25:32.898Z,35.11
2018-07-13T12:28:07.234Z,34.81
2018-07-13T12:30:41.621Z,35.06
2018-07-13T12:33:16.014Z,34.98
2018-07-13T12:35:50.356Z,34.64
2018-07-13T12:38:24.760Z,33.76
2018-07-13T12:40:59.091Z,34.94
2018-07-13T12:43:33.527Z,34.30
2018-07-13T12:46:07.948Z,33.60
2018-07-13T12:48:42.288Z,35.88
2018-07-13T12:51:16.675Z,34.42
2018-07-13T12:53:51.111Z,35.26
2018-07-13T12:56:25.508Z,35.87
2018-07-13T12:58:59.924Z,34.66
2018-07-13T13:01:34.191Z,35.25
2018-07-13T13:04:08.611Z,35.38
2018-07-13T13:06:42.996Z,36.29
2018-07-13T13:09:17.495Z,36.75
2018-07-13T13:11:51.699Z,36.01
2018-07-13T13:14:26.116Z,36.10
2018-07-13T13:17:00.489Z,36.17
2018-07-13T13:19:35.187Z,36.16
2018-07-13T13:22:09.940Z,36.53
2018-07-13T13:24:44.410Z,35.10
2018-07-13T13:27:18.985Z,35.02
2018-07-13T13:29:53.448Z,35.41
2018-07-13T13:32:27.827Z,34.77
2018-07-13T13:35:02.252Z,34.53
2018-07-13T13:37:36.684Z,35.09
2018-07-13T13:40:10.987Z,35.88
2018-07-13T13:42:45.393Z,35.52
2018-07-13T13:45:19.650Z,34.84
2018-07-13T13:47:54.039Z,33.93
2018-07-13T13:50:28.353Z,33.69
2018-07-13T13:53:02.724Z,33.65
2018-07-13T13:55:36.977Z,32.81
2018-07-13T13:58:11.275Z,33.34
2018-07-13T14:00:45.512Z,33.57
2018-07-13T14:03:19.950Z,33.44
2018-07-13T14:05:54.452Z,32.03
2018-07-13T14:08:28.867Z,32.15
2018-07-13T14:11:03.277Z,32.14
2018-07-13T14:13:37.702Z,31.31
2018-07-13T14:16:12.238Z,31.10
2018-07-13T14:18:46.623Z,30.03
2018-07-13T14:21:21.303Z,29.59
2018-07-13T14:23:55.781Z,30.25
2018-07-13T14:26:30.358Z,30.41
2018-07-13T14:29:04.803Z,28.75
2018-07-13T14:31:39.205Z,27.25
2018-07-13T14:34:13.538Z,26.52
2018-07-13T14:36:47.985Z,26.09
2018-07-13T14:39:22.486Z,25.33
2018-07-13T14:41:56.859Z,26.02
2018-07-13T14:44:31.208Z,25.17
2018-07-13T14:47:05.996Z,25.07
2018-07-13T14:49:40.586Z,25.83
2018-07-13T14:52:15.226Z,24.81
2018-07-13T14:54:49.616Z,24.71
2018-07-13T14:57:24.037Z,20.48
2018-07-13T14:59:58.602Z,21.89
2018-07-13T15:02:33.089Z,21.88
2018-07-13T15:05:07.555Z,22.87
2018-07-13T15:07:42.034Z,23.07
2018-07-13T15:10:16.769Z,24.31
2018-07-13T15:12:50.977Z,24.19
2018-07-13T15:15:25.412Z,23.83
2018-07-13T15:17:59.770Z,23.34
2018-07-13T15:20:34.203Z,25.16
2018-07-13T15:23:08.716Z,24.65
2018-07-13T15:25:43.210Z,24.24
2018-07-13T15:28:17.555Z,25.90
2018-07-13T15:30:52.144Z,26.17
2018-07-13T15:33:26.661Z,28.60
2018-07-13T15:36:01.288Z,29.46
2018-07-13T15:38:35.836Z,29.54
2018-07-13T15:41:10.388Z,30.43
2018-07-13T15:43:44.869Z,30.06
2018-07-13T15:46:19.442Z,30.44
2018-07-13T15:48:54.051Z,30.63
2018-07-13T15:51:29.077Z,30.97
2018-07-13T15:54:03.638Z,32.84
2018-07-13T15:56:38.161Z,31.35
2018-07-13T15:59:12.814Z,31.71
2018-07-13T16:01:47.237Z,30.80
2018-07-13T16:04:21.760Z,31.03
2018-07-13T16:06:56.441Z,30.97
2018-07-13T16:09:30.874Z,31.99
2018-07-13T16:12:05.404Z,31.95
2018-07-13T16:14:39.708Z,32.27
2018-07-13T16:17:14.263Z,32.56
2018-07-13T16:19:48.794Z,31.96
2018-07-13T16:22:23.354Z,35.01
2018-07-13T16:24:57.849Z,33.43
2018-07-13T16:27:32.407Z,33.82
2018-07-13T16:30:07.405Z,34.50
2018-07-13T16:32:42.065Z,34.27
2018-07-13T16:35:16.689Z,34.92
2018-07-13T16:37:51.301Z,35.36
2018-07-13T16:40:26.017Z,35.04
2018-07-13T16:43:00.517Z,34.62
2018-07-13T16:45:35.130Z,34.21
2018-07-13T16:48:09.400Z,35.36
2018-07-13T16:50:43.803Z,34.48
2018-07-13T16:53:18.249Z,35.60
2018-07-13T16:55:52.610Z,35.37
2018-07-13T16:58:27.177Z,34.94
2018-07-13T17:01:01.655Z,34.41
2018-07-13T17:03:36.099Z,35.89
2018-07-13T17:06:10.481Z,34.43
2018-07-13T17:08:44.985Z,34.48
2018-07-13T17:11:19.538Z,35.20
2018-07-13T17:13:54.066Z,35.68
2018-07-13T17:16:28.344Z,34.97
2018-07-13T17:19:02.734Z,34.89
2018-07-13T17:21:37.257Z,35.39
2018-07-13T17:24:11.824Z,36.37
2018-07-13T17:26:46.283Z,35.43
2018-07-13T17:29:20.669Z,36.48
2018-07-13T17:31:55.170Z,36.25
2018-07-13T17:34:29.732Z,36.63
2018-07-13T17:37:04.346Z,37.12
2018-07-13T17:39:38.741Z,36.49
2018-07-13T17:42:13.382Z,36.71
2018-07-13T17:44:47.962Z,37.95
2018-07-13T17:47:22.517Z,35.78
2018-07-13T17:49:57.004Z,37.44
2018-07-13T17:52:31.688Z,36.63
2018-07-13T17:55:06.337Z,37.33
2018-07-13T17:57:40.889Z,37.38
2018-07-13T18:00:15.424Z,37.20
2018-07-13T18:02:49.820Z,37.56
2018-07-13T18:05:24.164Z,37.49
2018-07-13T18:07:58.660Z,38.52
2018-07-13T18:10:33.150Z,37.94
2018-07-13T18:13:07.647Z,37.41
2018-07-13T18:15:42.001Z,37.71
2018-07-13T18:18:16.600Z,37.54
2018-07-13T18:20:51.126Z,38.27
2018-07-13T18:23:25.714Z,37.32
2018-07-13T18:26:00.317Z,39.43
2018-07-13T18:28:34.876Z,41.58
2018-07-13T18:31:09.402Z,39.31
2018-07-13T18:33:43.920Z,41.87
2018-07-13T18:36:18.557Z,39.85
2018-07-13T18:38:52.976Z,39.76
2018-07-13T18:41:27.397Z,42.16
2018-07-13T18:44:01.842Z,40.63
2018-07-13T18:46:36.369Z,40.38
2018-07-13T18:49:10.886Z,41.17
2018-07-13T18:51:45.537Z,41.74
2018-07-13T18:54:20.025Z,42.38
2018-07-13T18:56:54.411Z,42.27
2018-07-13T18:59:28.948Z,42.43
2018-07-13T19:02:03.884Z,42.84
2018-07-13T19:04:38.463Z,43.55
2018-07-13T19:07:13.097Z,43.68
2018-07-13T19:09:47.830Z,45.43
2018-07-13T19:12:22.389Z,43.79
2018-07-13T19:14:57.004Z,44.60
2018-07-13T19:17:31.480Z,45.03
2018-07-13T19:20:06.103Z,47.64
2018-07-13T19:22:40.705Z,47.05
2018-07-13T19:25:15.310Z,47.39
2018-07-13T19:27:49.805Z,47.82
2018-07-13T19:30:24.830Z,48.81
2018-07-13T19:32:59.191Z,50.03
2018-07-13T19:35:33.776Z,49.42
2018-07-13T19:38:08.250Z,50.18
2018-07-13T19:40:42.838Z,50.44
2018-07-13T19:43:17.327Z,51.18
2018-07-13T19:45:51.790Z,51.26
2018-07-13T19:48:26.337Z,52.40
2018-07-13T19:51:00.885Z,52.33
2018-07-13T19:53:35.303Z,52.50
2018-07-13T19:56:09.801Z,52.62
2018-07-13T19:58:44.415Z,52.74
2018-07-13T20:01:18.896Z,53.34
2018-07-13T20:03:53.367Z,53.19
2018-07-13T20:06:27.869Z,53.81
2018-07-13T20:09:02.481Z,52.27
2018-07-13T20:11:37.385Z,52.60
2018-07-13T20:14:11.905Z,54.56
2018-07-13T20:16:46.491Z,53.01
2018-07-13T20:19:20.988Z,52.87
2018-07-13T20:21:55.629Z,53.89
2018-07-13T20:24:30.193Z,53.89
2018-07-13T20:27:04.729Z,53.04
2018-07-13T20:29:39.263Z,54.68
2018-07-13T20:32:13.868Z,54.58
2018-07-13T20:34:48.256Z,54.73
2018-07-13T20:37:22.897Z,53.90
2018-07-13T20:39:57.374Z,54.22
2018-07-13T20:42:31.865Z,53.61
2018-07-13T20:45:06.241Z,53.14
2018-07-13T20:47:40.863Z,53.52
2018-07-13T20:50:15.565Z,52.86
2018-07-13T20:52:49.998Z,54.85
2018-07-13T20:55:24.551Z,52.84
2018-07-13T20:57:59.303Z,54.41
2018-07-13T21:00:33.804Z,54.59
2018-07-13T21:03:08.338Z,54.26
2018-07-13T21:05:42.849Z,54.13
2018-07-13T21:08:17.392Z,54.33
2018-07-13T21:10:51.900Z,54.42
2018-07-13T21:13:26.496Z,55.41
2018-07-13T21:16:01.054Z,53.79
2018-07-13T21:18:35.524Z,54.85
2018-07-13T21:21:09.940Z,55.01
2018-07-13T21:23:44.444Z,55.27
2018-07-13T21:26:19.030Z,55.61
2018-07-13T21:28:53.673Z,55.93
2018-07-13T21:31:28.312Z,55.91
2018-07-13T21:34:02.998Z,55.81
2018-07-13T21:36:37.527Z,56.30
2018-07-13T21:39:12.151Z,55.79
2018-07-13T21:41:46.726Z,54.75
2018-07-13T21:44:21.219Z,56.26
2018-07-13T21:46:55.718Z,56.05
2018-07-13T21:49:30.228Z,55.84
2018-07-13T21:52:04.722Z,56.01
2018-07-13T21:54:39.285Z,56.19
2018-07-13T21:57:13.869Z,55.32
2018-07-13T21:59:48.260Z,55.73
2018-07-13T22:02:22.741Z,56.73
2018-07-13T22:04:57.333Z,56.86
2018-07-13T22:07:31.829Z,56.80
2018-07-13T22:10:06.490Z,56.68
2018-07-13T22:12:40.990Z,57.30
2018-07-13T22:15:15.504Z,57.19
2018-07-13T22:17:50.002Z,57.79
2018-07-13T22:20:24.483Z,56.15
2018-07-13T22:22:59.072Z,55.99
2018-07-13T22:25:33.679Z,56.30
2018-07-13T22:28:08.181Z,56.88
2018-07-13T22:30:42.598Z,57.84
2018-07-13T22:33:17.061Z,58.12
2018-07-13T22:35:51.742Z,58.06
2018-07-13T22:38:26.287Z,57.93
2018-07-13T22:41:00.985Z,58.51
2018-07-13T22:43:35.520Z,57.48
2018-07-13T22:46:09.940Z,57.91
2018-07-13T22:48:44.366Z,58.38
2018-07-13T22:51:18.858Z,58.52
2018-07-13T22:53:53.403Z,59.26
2018-07-13T22:56:28.073Z,59.78
2018-07-13T22:59:02.848Z,59.94
2018-07-13T23:01:37.232Z,61.50
2018-07-13T23:04:11.610Z,61.31
2018-07-13T23:06:46.813Z,60.63
2018-07-13T23:09:21.292Z,61.41
2018-07-13T23:11:55.932Z,63.22
2018-07-13T23:14:30.480Z,62.82
2018-07-13T23:17:05.185Z,64.96
2018-07-13T23:19:39.940Z,64.19
2018-07-13T23:22:14.549Z,63.87
2018-07-13T23:24:49.157Z,62.55
2018-07-13T23:27:23.821Z,62.02
2018-07-13T23:29:58.478Z,62.45
2018-07-13T23:32:33.230Z,62.80
2018-07-13T23:35:08.065Z,62.29
2018-07-13T23:37:42.708Z,61.73
2018-07-13T23:40:17.081Z,63.57
2018-07-13T23:42:51.512Z,62.92
2018-07-13T23:45:26.173Z,62.86
2018-07-13T23:48:00.822Z,62.05
2018-07-13T23:50:35.328Z,61.64
2018-07-13T23:53:09.874Z,61.43
2018-07-13T23:55:44.843Z,61.98
2018-07-13T23:58:19.361Z,62.16
